sensor_id;sensor_type;location;lat;lon;timestamp;temperature;humidity
12156;DHT22;6141;49.092;8.516;2022-12-18T01:39:20;-4.20;41.00
12156;DHT22;6141;49.092;8.516;2022-12-18T01:41:48;-4.20;41.00
12156;DHT22;6141;49.092;8.516;2022-12-18T01:45:03;-4.10;41.20
12156;DHT22;6141;49.092;8.516;2022-12-18T01:47:35;-4.20;41.00
12156;DHT22;6141;49.092;8.516;2022-12-18T01:50:08;-4.10;41.00
12156;DHT22;6141;49.092;8.516;2022-12-18T01:52:37;-4.00;41.10
12156;DHT22;6141;49.092;8.516;2022-12-18T01:55:08;-4.00;41.00
12156;DHT22;6141;49.092;8.516;2022-12-18T01:57:38;-3.90;41.00
12156;DHT22;6141;49.092;8.516;2022-12-18T02:00:10;-3.90;40.80
12156;DHT22;6141;49.092;8.516;2022-12-18T02:02:43;-4.00;40.60
12156;DHT22;6141;49.092;8.516;2022-12-18T02:05:16;-4.00;40.50
12156;DHT22;6141;49.092;8.516;2022-12-18T02:07:55;-4.00;40.50
12156;DHT22;6141;49.092;8.516;2022-12-18T02:10:31;-4.20;40.30
12156;DHT22;6141;49.092;8.516;2022-12-18T02:13:07;-4.10;40.60
12156;DHT22;6141;49.092;8.516;2022-12-18T02:15:46;-4.10;40.80
12156;DHT22;6141;49.092;8.516;2022-12-18T02:18:20;-4.10;40.90
12156;DHT22;6141;49.092;8.516;2022-12-18T02:20:55;-4.10;40.90
12156;DHT22;6141;49.092;8.516;2022-12-18T02:23:42;-4.00;40.90
12156;DHT22;6141;49.092;8.516;2022-12-18T02:26:19;-4.00;40.80
12156;DHT22;6141;49.092;8.516;2022-12-18T02:28:54;-4.00;40.80
12156;DHT22;6141;49.092;8.516;2022-12-18T02:31:28;-4.00;40.80
12156;DHT22;6141;49.092;8.516;2022-12-18T02:34:01;-4.00;40.90
12156;DHT22;6141;49.092;8.516;2022-12-18T02:36:40;-4.00;41.00
12156;DHT22;6141;49.092;8.516;2022-12-18T02:39:11;-4.00;41.10
12156;DHT22;6141;49.092;8.516;2022-12-18T02:41:52;-4.00;41.20
12156;DHT22;6141;49.092;8.516;2022-12-18T02:44:23;-4.10;41.30
12156;DHT22;6141;49.092;8.516;2022-12-18T02:46:53;-4.10;41.20
12156;DHT22;6141;49.092;8.516;2022-12-18T02:49:29;-4.10;41.40
12156;DHT22;6141;49.092;8.516;2022-12-18T02:52:07;-4.10;41.40
12156;DHT22;6141;49.092;8.516;2022-12-18T02:54:50;-4.00;41.60
12156;DHT22;6141;49.092;8.516;2022-12-18T02:57:29;-3.90;41.70
12156;DHT22;6141;49.092;8.516;2022-12-18T03:00:05;-4.00;41.70
12156;DHT22;6141;49.092;8.516;2022-12-18T03:02:39;-4.00;41.80
12156;DHT22;6141;49.092;8.516;2022-12-18T03:05:14;-4.00;41.90
12156;DHT22;6141;49.092;8.516;2022-12-18T03:07:50;-4.10;42.00
12156;DHT22;6141;49.092;8.516;2022-12-18T03:10:24;-4.00;42.00
12156;DHT22;6141;49.092;8.516;2022-12-18T03:13:00;-4.00;41.90
12156;DHT22;6141;49.092;8.516;2022-12-18T03:15:33;-3.90;41.80
12156;DHT22;6141;49.092;8.516;2022-12-18T03:18:12;-3.70;41.80
12156;DHT22;6141;49.092;8.516;2022-12-18T03:20:43;-3.80;41.50
12156;DHT22;6141;49.092;8.516;2022-12-18T03:23:20;-3.80;41.50
12156;DHT22;6141;49.092;8.516;2022-12-18T03:25:54;-3.90;41.30
12156;DHT22;6141;49.092;8.516;2022-12-18T03:28:30;-3.90;41.30
12156;DHT22;6141;49.092;8.516;2022-12-18T03:31:04;-3.90;41.10
12156;DHT22;6141;49.092;8.516;2022-12-18T03:33:37;-3.90;41.70
12156;DHT22;6141;49.092;8.516;2022-12-18T03:36:07;-4.00;41.90
12156;DHT22;6141;49.092;8.516;2022-12-18T03:38:37;-3.90;42.30
12156;DHT22;6141;49.092;8.516;2022-12-18T03:41:14;-4.00;42.70
12156;DHT22;6141;49.092;8.516;2022-12-18T03:44:11;-4.00;42.70
12156;DHT22;6141;49.092;8.516;2022-12-18T03:46:49;-3.90;43.10
12156;DHT22;6141;49.092;8.516;2022-12-18T03:49:25;-3.90;42.90
12156;DHT22;6141;49.092;8.516;2022-12-18T03:52:01;-3.90;43.00
12156;DHT22;6141;49.092;8.516;2022-12-18T03:54:33;-3.80;43.20
12156;DHT22;6141;49.092;8.516;2022-12-18T03:57:13;-3.80;43.10
12156;DHT22;6141;49.092;8.516;2022-12-18T03:59:46;-3.80;42.90
12156;DHT22;6141;49.092;8.516;2022-12-18T04:02:18;-3.80;42.80
12156;DHT22;6141;49.092;8.516;2022-12-18T04:04:47;-3.80;42.90
12156;DHT22;6141;49.092;8.516;2022-12-18T04:07:17;-3.80;42.50
12156;DHT22;6141;49.092;8.516;2022-12-18T04:09:48;-3.80;42.80
12156;DHT22;6141;49.092;8.516;2022-12-18T04:12:18;-3.70;42.90
12156;DHT22;6141;49.092;8.516;2022-12-18T04:14:48;-3.80;42.60
12156;DHT22;6141;49.092;8.516;2022-12-18T04:17:18;-3.70;42.70
12156;DHT22;6141;49.092;8.516;2022-12-18T04:19:46;-3.70;42.70
12156;DHT22;6141;49.092;8.516;2022-12-18T04:22:16;-3.70;42.80
12156;DHT22;6141;49.092;8.516;2022-12-18T04:24:47;-3.70;42.50
12156;DHT22;6141;49.092;8.516;2022-12-18T04:27:25;-3.80;42.70
12156;DHT22;6141;49.092;8.516;2022-12-18T04:29:55;-3.70;42.70
12156;DHT22;6141;49.092;8.516;2022-12-18T04:32:23;-3.70;42.60
12156;DHT22;6141;49.092;8.516;2022-12-18T04:34:52;-3.70;42.60
12156;DHT22;6141;49.092;8.516;2022-12-18T04:37:20;-3.70;42.30
12156;DHT22;6141;49.092;8.516;2022-12-18T04:39:50;-3.70;42.60
12156;DHT22;6141;49.092;8.516;2022-12-18T04:42:25;-3.80;42.80
12156;DHT22;6141;49.092;8.516;2022-12-18T04:44:55;-3.80;42.80
12156;DHT22;6141;49.092;8.516;2022-12-18T04:47:23;-3.80;42.80
12156;DHT22;6141;49.092;8.516;2022-12-18T04:49:51;-3.80;42.60
12156;DHT22;6141;49.092;8.516;2022-12-18T04:52:19;-3.80;41.20
12156;DHT22;6141;49.092;8.516;2022-12-18T04:54:50;-4.10;39.80
12156;DHT22;6141;49.092;8.516;2022-12-18T04:57:19;-4.20;40.70
12156;DHT22;6141;49.092;8.516;2022-12-18T04:59:47;-4.50;39.50
12156;DHT22;6141;49.092;8.516;2022-12-18T05:02:17;-4.90;39.70
12156;DHT22;6141;49.092;8.516;2022-12-18T05:04:45;-5.10;39.80
12156;DHT22;6141;49.092;8.516;2022-12-18T05:07:13;-5.20;39.60
12156;DHT22;6141;49.092;8.516;2022-12-18T05:09:42;-5.30;39.60
12156;DHT22;6141;49.092;8.516;2022-12-18T05:12:11;-5.30;40.40
12156;DHT22;6141;49.092;8.516;2022-12-18T05:14:39;-5.30;39.40
12156;DHT22;6141;49.092;8.516;2022-12-18T05:17:07;-5.30;39.90
12156;DHT22;6141;49.092;8.516;2022-12-18T05:19:37;-5.40;38.80
12156;DHT22;6141;49.092;8.516;2022-12-18T05:22:05;-5.60;39.30
12156;DHT22;6141;49.092;8.516;2022-12-18T05:24:35;-5.60;40.00
12156;DHT22;6141;49.092;8.516;2022-12-18T05:27:03;-5.70;39.90
12156;DHT22;6141;49.092;8.516;2022-12-18T05:29:31;-5.70;40.20
12156;DHT22;6141;49.092;8.516;2022-12-18T05:32:00;-5.80;40.20
12156;DHT22;6141;49.092;8.516;2022-12-18T05:34:28;-5.90;40.50
12156;DHT22;6141;49.092;8.516;2022-12-18T05:36:57;-5.80;40.30
12156;DHT22;6141;49.092;8.516;2022-12-18T05:39:25;-5.80;39.70
12156;DHT22;6141;49.092;8.516;2022-12-18T05:41:54;-5.80;39.70
12156;DHT22;6141;49.092;8.516;2022-12-18T05:44:22;-5.90;39.40
12156;DHT22;6141;49.092;8.516;2022-12-18T05:46:50;-6.00;39.50
12156;DHT22;6141;49.092;8.516;2022-12-18T05:49:19;-6.10;40.00
12156;DHT22;6141;49.092;8.516;2022-12-18T05:51:47;-6.10;40.20
12156;DHT22;6141;49.092;8.516;2022-12-18T05:54:16;-6.20;40.20
12156;DHT22;6141;49.092;8.516;2022-12-18T05:56:45;-6.20;40.50
12156;DHT22;6141;49.092;8.516;2022-12-18T05:59:15;-6.20;40.40
12156;DHT22;6141;49.092;8.516;2022-12-18T06:01:43;-6.20;40.40
12156;DHT22;6141;49.092;8.516;2022-12-18T06:04:11;-6.20;40.30
12156;DHT22;6141;49.092;8.516;2022-12-18T06:06:40;-6.20;40.30
12156;DHT22;6141;49.092;8.516;2022-12-18T06:09:08;-6.20;40.00
12156;DHT22;6141;49.092;8.516;2022-12-18T06:11:38;-6.40;40.00
12156;DHT22;6141;49.092;8.516;2022-12-18T06:14:07;-6.40;41.00
12156;DHT22;6141;49.092;8.516;2022-12-18T06:16:35;-6.40;41.10
12156;DHT22;6141;49.092;8.516;2022-12-18T06:19:05;-6.60;41.50
12156;DHT22;6141;49.092;8.516;2022-12-18T06:21:33;-6.70;42.10
12156;DHT22;6141;49.092;8.516;2022-12-18T06:24:02;-6.80;41.90
12156;DHT22;6141;49.092;8.516;2022-12-18T06:26:30;-6.80;41.30
12156;DHT22;6141;49.092;8.516;2022-12-18T06:29:00;-6.70;41.30
12156;DHT22;6141;49.092;8.516;2022-12-18T06:31:28;-6.60;41.60
12156;DHT22;6141;49.092;8.516;2022-12-18T06:33:56;-6.50;41.40
12156;DHT22;6141;49.092;8.516;2022-12-18T06:36:24;-6.50;41.40
12156;DHT22;6141;49.092;8.516;2022-12-18T06:38:53;-6.50;41.50
12156;DHT22;6141;49.092;8.516;2022-12-18T06:41:21;-6.50;42.00
12156;DHT22;6141;49.092;8.516;2022-12-18T06:43:49;-6.50;42.30
12156;DHT22;6141;49.092;8.516;2022-12-18T06:46:25;-6.50;42.30
12156;DHT22;6141;49.092;8.516;2022-12-18T06:48:53;-6.40;42.40
12156;DHT22;6141;49.092;8.516;2022-12-18T06:51:23;-6.30;42.50
12156;DHT22;6141;49.092;8.516;2022-12-18T06:53:51;-6.20;42.60
12156;DHT22;6141;49.092;8.516;2022-12-18T06:56:20;-6.00;42.70
12156;DHT22;6141;49.092;8.516;2022-12-18T06:58:48;-6.00;42.60
12156;DHT22;6141;49.092;8.516;2022-12-18T07:01:16;-6.10;42.60
12156;DHT22;6141;49.092;8.516;2022-12-18T07:03:46;-6.10;42.60
12156;DHT22;6141;49.092;8.516;2022-12-18T07:06:16;-6.10;42.60
12156;DHT22;6141;49.092;8.516;2022-12-18T07:08:45;-6.10;42.90
12156;DHT22;6141;49.092;8.516;2022-12-18T07:11:14;-6.10;43.30
12156;DHT22;6141;49.092;8.516;2022-12-18T07:13:43;-6.20;43.70
12156;DHT22;6141;49.092;8.516;2022-12-18T07:16:13;-6.10;45.00
12156;DHT22;6141;49.092;8.516;2022-12-18T07:18:51;-6.20;45.20
12156;DHT22;6141;49.092;8.516;2022-12-18T07:21:20;-6.20;45.60
12156;DHT22;6141;49.092;8.516;2022-12-18T07:23:48;-6.20;46.00
12156;DHT22;6141;49.092;8.516;2022-12-18T07:26:17;-6.00;46.30
12156;DHT22;6141;49.092;8.516;2022-12-18T07:28:46;-6.00;46.20
12156;DHT22;6141;49.092;8.516;2022-12-18T07:31:17;-5.90;46.20
12156;DHT22;6141;49.092;8.516;2022-12-18T07:33:48;-5.80;46.20
12156;DHT22;6141;49.092;8.516;2022-12-18T07:36:18;-5.70;46.20
12156;DHT22;6141;49.092;8.516;2022-12-18T07:38:47;-5.60;46.00
12156;DHT22;6141;49.092;8.516;2022-12-18T07:41:16;-5.40;45.80
12156;DHT22;6141;49.092;8.516;2022-12-18T07:43:45;-5.30;45.60
12156;DHT22;6141;49.092;8.516;2022-12-18T07:46:14;-5.20;45.60
12156;DHT22;6141;49.092;8.516;2022-12-18T07:48:43;-5.20;45.60
12156;DHT22;6141;49.092;8.516;2022-12-18T07:51:18;-5.30;45.80
12156;DHT22;6141;49.092;8.516;2022-12-18T07:53:47;-5.30;45.90
12156;DHT22;6141;49.092;8.516;2022-12-18T07:56:18;-5.20;46.10
12156;DHT22;6141;49.092;8.516;2022-12-18T07:58:56;-5.20;46.10
12156;DHT22;6141;49.092;8.516;2022-12-18T08:01:25;-5.40;46.40
12156;DHT22;6141;49.092;8.516;2022-12-18T08:03:53;-5.50;46.40
12156;DHT22;6141;49.092;8.516;2022-12-18T08:06:23;-5.30;46.70
12156;DHT22;6141;49.092;8.516;2022-12-18T08:08:52;-5.30;46.60
12156;DHT22;6141;49.092;8.516;2022-12-18T08:11:22;-5.30;46.60
12156;DHT22;6141;49.092;8.516;2022-12-18T08:13:51;-5.40;46.80
12156;DHT22;6141;49.092;8.516;2022-12-18T08:16:20;-5.40;47.20
12156;DHT22;6141;49.092;8.516;2022-12-18T08:18:48;-5.40;47.70
12156;DHT22;6141;49.092;8.516;2022-12-18T08:21:19;-5.40;47.50
12156;DHT22;6141;49.092;8.516;2022-12-18T08:23:52;-5.20;47.40
12156;DHT22;6141;49.092;8.516;2022-12-18T08:26:21;-5.10;47.00
12156;DHT22;6141;49.092;8.516;2022-12-18T08:28:50;-5.00;46.90
12156;DHT22;6141;49.092;8.516;2022-12-18T08:31:19;-4.80;46.80
12156;DHT22;6141;49.092;8.516;2022-12-18T08:33:49;-4.80;46.10
12156;DHT22;6141;49.092;8.516;2022-12-18T08:36:18;-4.70;46.10
12156;DHT22;6141;49.092;8.516;2022-12-18T08:38:47;-4.60;45.50
12156;DHT22;6141;49.092;8.516;2022-12-18T08:41:17;-4.60;45.40
12156;DHT22;6141;49.092;8.516;2022-12-18T08:43:46;-4.40;45.10
12156;DHT22;6141;49.092;8.516;2022-12-18T08:46:34;-4.30;44.70
12156;DHT22;6141;49.092;8.516;2022-12-18T08:49:03;-4.20;44.40
12156;DHT22;6141;49.092;8.516;2022-12-18T08:51:31;-4.20;44.50
12156;DHT22;6141;49.092;8.516;2022-12-18T08:54:00;-4.20;44.50
12156;DHT22;6141;49.092;8.516;2022-12-18T08:56:32;-4.10;44.60
12156;DHT22;6141;49.092;8.516;2022-12-18T08:59:01;-4.00;44.60
12156;DHT22;6141;49.092;8.516;2022-12-18T09:01:29;-3.80;43.70
12156;DHT22;6141;49.092;8.516;2022-12-18T09:03:59;-3.90;43.40
12156;DHT22;6141;49.092;8.516;2022-12-18T09:06:27;-3.80;43.40
12156;DHT22;6141;49.092;8.516;2022-12-18T09:08:57;-3.70;43.40
12156;DHT22;6141;49.092;8.516;2022-12-18T09:11:27;-3.70;43.30
12156;DHT22;6141;49.092;8.516;2022-12-18T09:13:59;-3.60;43.30
12156;DHT22;6141;49.092;8.516;2022-12-18T09:16:28;-3.40;42.80
12156;DHT22;6141;49.092;8.516;2022-12-18T09:18:59;-3.40;42.60
12156;DHT22;6141;49.092;8.516;2022-12-18T09:21:29;-3.20;42.40
12156;DHT22;6141;49.092;8.516;2022-12-18T09:24:00;-3.10;42.00
12156;DHT22;6141;49.092;8.516;2022-12-18T09:26:29;-3.10;42.10
12156;DHT22;6141;49.092;8.516;2022-12-18T09:28:59;-3.10;42.20
12156;DHT22;6141;49.092;8.516;2022-12-18T09:31:27;-3.10;42.20
12156;DHT22;6141;49.092;8.516;2022-12-18T09:33:56;-3.10;42.20
12156;DHT22;6141;49.092;8.516;2022-12-18T09:36:24;-3.00;42.40
12156;DHT22;6141;49.092;8.516;2022-12-18T09:38:53;-2.90;42.40
12156;DHT22;6141;49.092;8.516;2022-12-18T09:41:39;-2.90;42.80
12156;DHT22;6141;49.092;8.516;2022-12-18T09:44:20;-2.70;42.60
12156;DHT22;6141;49.092;8.516;2022-12-18T09:46:55;-2.50;41.90
12156;DHT22;6141;49.092;8.516;2022-12-18T09:49:27;-2.70;41.90
12156;DHT22;6141;49.092;8.516;2022-12-18T09:52:00;-2.80;42.10
12156;DHT22;6141;49.092;8.516;2022-12-18T09:54:33;-2.90;42.90
12156;DHT22;6141;49.092;8.516;2022-12-18T09:57:04;-2.80;42.70
12156;DHT22;6141;49.092;8.516;2022-12-18T09:59:35;-2.80;42.50
12156;DHT22;6141;49.092;8.516;2022-12-18T10:02:14;-2.70;42.50
12156;DHT22;6141;49.092;8.516;2022-12-18T10:04:43;-2.80;42.40
12156;DHT22;6141;49.092;8.516;2022-12-18T10:07:19;-2.70;42.40
12156;DHT22;6141;49.092;8.516;2022-12-18T10:09:55;-2.80;42.80
12156;DHT22;6141;49.092;8.516;2022-12-18T10:12:32;-2.70;42.80
12156;DHT22;6141;49.092;8.516;2022-12-18T10:15:10;-2.50;43.30
12156;DHT22;6141;49.092;8.516;2022-12-18T10:17:46;-2.30;43.30
12156;DHT22;6141;49.092;8.516;2022-12-18T10:20:23;-1.90;42.40
12156;DHT22;6141;49.092;8.516;2022-12-18T10:22:59;-1.80;41.50
12156;DHT22;6141;49.092;8.516;2022-12-18T10:25:33;-1.70;41.30
12156;DHT22;6141;49.092;8.516;2022-12-18T10:28:22;-1.60;40.90
12156;DHT22;6141;49.092;8.516;2022-12-18T10:31:16;-1.70;39.90
12156;DHT22;6141;49.092;8.516;2022-12-18T10:34:09;-1.60;40.90
12156;DHT22;6141;49.092;8.516;2022-12-18T10:37:00;-1.50;41.00
12156;DHT22;6141;49.092;8.516;2022-12-18T10:40:07;-1.40;40.40
12156;DHT22;6141;49.092;8.516;2022-12-18T10:43:12;-1.20;39.80
12156;DHT22;6141;49.092;8.516;2022-12-18T10:46:17;-1.20;40.00
12156;DHT22;6141;49.092;8.516;2022-12-18T10:49:19;-1.00;39.20
12156;DHT22;6141;49.092;8.516;2022-12-18T10:52:14;-0.90;39.50
12156;DHT22;6141;49.092;8.516;2022-12-18T10:55:04;-0.70;39.50
12156;DHT22;6141;49.092;8.516;2022-12-18T10:57:53;-0.60;38.70
12156;DHT22;6141;49.092;8.516;2022-12-18T11:00:41;-0.90;37.50
12156;DHT22;6141;49.092;8.516;2022-12-18T11:03:34;-1.20;38.80
12156;DHT22;6141;49.092;8.516;2022-12-18T11:06:24;-1.40;40.10
12156;DHT22;6141;49.092;8.516;2022-12-18T11:09:20;-1.40;39.80
12156;DHT22;6141;49.092;8.516;2022-12-18T11:12:16;-1.50;40.80
12156;DHT22;6141;49.092;8.516;2022-12-18T11:15:13;-1.40;40.80
12156;DHT22;6141;49.092;8.516;2022-12-18T11:18:03;-1.20;40.80
12156;DHT22;6141;49.092;8.516;2022-12-18T11:20:56;-0.70;40.10
12156;DHT22;6141;49.092;8.516;2022-12-18T11:23:47;-0.40;39.40
12156;DHT22;6141;49.092;8.516;2022-12-18T11:26:37;-0.70;38.50
12156;DHT22;6141;49.092;8.516;2022-12-18T11:29:32;-0.60;39.00
12156;DHT22;6141;49.092;8.516;2022-12-18T11:32:34;-0.30;38.30
12156;DHT22;6141;49.092;8.516;2022-12-18T11:35:38;-0.50;37.80
12156;DHT22;6141;49.092;8.516;2022-12-18T11:38:32;-0.30;38.00
12156;DHT22;6141;49.092;8.516;2022-12-18T11:41:27;-0.30;37.60
12156;DHT22;6141;49.092;8.516;2022-12-18T11:44:45;-0.30;37.00
12156;DHT22;6141;49.092;8.516;2022-12-18T11:47:39;-0.70;37.20
12156;DHT22;6141;49.092;8.516;2022-12-18T11:50:33;-0.70;38.30
12156;DHT22;6141;49.092;8.516;2022-12-18T11:53:27;-0.70;37.40
12156;DHT22;6141;49.092;8.516;2022-12-18T11:56:28;-0.50;37.50
12156;DHT22;6141;49.092;8.516;2022-12-18T11:59:23;-0.30;37.80
12156;DHT22;6141;49.092;8.516;2022-12-18T12:02:33;0.00;37.40
12156;DHT22;6141;49.092;8.516;2022-12-18T12:05:31;-0.10;36.20
12156;DHT22;6141;49.092;8.516;2022-12-18T12:08:36;-0.30;36.80
12156;DHT22;6141;49.092;8.516;2022-12-18T12:11:35;-0.20;37.50
12156;DHT22;6141;49.092;8.516;2022-12-18T12:14:39;-0.10;37.50
12156;DHT22;6141;49.092;8.516;2022-12-18T12:17:34;0.00;37.00
12156;DHT22;6141;49.092;8.516;2022-12-18T12:20:33;0.20;36.50
12156;DHT22;6141;49.092;8.516;2022-12-18T12:23:31;0.30;36.60
12156;DHT22;6141;49.092;8.516;2022-12-18T12:26:30;0.20;36.50
12156;DHT22;6141;49.092;8.516;2022-12-18T12:29:30;-0.10;36.20
12156;DHT22;6141;49.092;8.516;2022-12-18T12:32:34;-0.10;36.90
12156;DHT22;6141;49.092;8.516;2022-12-18T12:35:35;-0.30;37.90
12156;DHT22;6141;49.092;8.516;2022-12-18T12:38:31;-0.20;38.00
12156;DHT22;6141;49.092;8.516;2022-12-18T12:41:24;-0.40;38.70
12156;DHT22;6141;49.092;8.516;2022-12-18T12:44:38;-0.30;39.30
12156;DHT22;6141;49.092;8.516;2022-12-18T12:47:31;0.00;39.00
12156;DHT22;6141;49.092;8.516;2022-12-18T12:50:22;0.00;38.10
12156;DHT22;6141;49.092;8.516;2022-12-18T12:53:20;-0.10;38.50
12156;DHT22;6141;49.092;8.516;2022-12-18T12:56:11;-0.10;38.90
12156;DHT22;6141;49.092;8.516;2022-12-18T12:59:11;0.20;38.40
12156;DHT22;6141;49.092;8.516;2022-12-18T13:02:10;0.40;37.70
12156;DHT22;6141;49.092;8.516;2022-12-18T13:05:09;0.60;36.80
12156;DHT22;6141;49.092;8.516;2022-12-18T13:08:05;0.60;36.90
12156;DHT22;6141;49.092;8.516;2022-12-18T13:10:55;0.80;35.50
12156;DHT22;6141;49.092;8.516;2022-12-18T13:14:24;1.00;35.10
12156;DHT22;6141;49.092;8.516;2022-12-18T13:17:26;1.00;36.00
12156;DHT22;6141;49.092;8.516;2022-12-18T13:20:16;0.90;35.50
12156;DHT22;6141;49.092;8.516;2022-12-18T13:23:35;0.70;35.90
12156;DHT22;6141;49.092;8.516;2022-12-18T13:26:32;0.40;36.60
12156;DHT22;6141;49.092;8.516;2022-12-18T13:29:42;0.10;37.70
12156;DHT22;6141;49.092;8.516;2022-12-18T13:32:33;0.20;37.40
12156;DHT22;6141;49.092;8.516;2022-12-18T13:35:38;0.10;37.40
12156;DHT22;6141;49.092;8.516;2022-12-18T13:38:34;0.30;37.40
12156;DHT22;6141;49.092;8.516;2022-12-18T13:41:25;0.40;36.60
12156;DHT22;6141;49.092;8.516;2022-12-18T13:44:31;0.50;36.70
12156;DHT22;6141;49.092;8.516;2022-12-18T13:47:33;0.70;36.90
12156;DHT22;6141;49.092;8.516;2022-12-18T13:50:23;0.60;36.80
12156;DHT22;6141;49.092;8.516;2022-12-18T13:53:25;0.50;36.70
12156;DHT22;6141;49.092;8.516;2022-12-18T13:56:16;0.60;36.80
12156;DHT22;6141;49.092;8.516;2022-12-18T13:59:17;0.50;36.70
12156;DHT22;6141;49.092;8.516;2022-12-18T14:02:15;0.30;37.50
12156;DHT22;6141;49.092;8.516;2022-12-18T14:05:23;0.30;37.70
12156;DHT22;6141;49.092;8.516;2022-12-18T14:08:16;0.40;37.90
12156;DHT22;6141;49.092;8.516;2022-12-18T14:11:17;0.30;38.20
12156;DHT22;6141;49.092;8.516;2022-12-18T14:14:29;0.40;38.40
12156;DHT22;6141;49.092;8.516;2022-12-18T14:17:20;0.20;38.00
12156;DHT22;6141;49.092;8.516;2022-12-18T14:20:16;0.10;38.60
12156;DHT22;6141;49.092;8.516;2022-12-18T14:23:38;0.20;38.90
12156;DHT22;6141;49.092;8.516;2022-12-18T14:26:33;0.10;39.60
12156;DHT22;6141;49.092;8.516;2022-12-18T14:29:24;0.20;39.90
12156;DHT22;6141;49.092;8.516;2022-12-18T14:37:33;0.30;38.80
12156;DHT22;6141;49.092;8.516;2022-12-18T14:40:22;0.20;38.90
12156;DHT22;6141;49.092;8.516;2022-12-18T14:43:55;0.30;39.00
12156;DHT22;6141;49.092;8.516;2022-12-18T14:47:28;0.20;39.20
12156;DHT22;6141;49.092;8.516;2022-12-18T15:53:14;-0.50;42.00
12156;DHT22;6141;49.092;8.516;2022-12-18T15:56:12;-0.60;42.70
12156;DHT22;6141;49.092;8.516;2022-12-18T15:59:33;-0.60;42.90
12156;DHT22;6141;49.092;8.516;2022-12-18T16:02:33;-0.60;43.60
12156;DHT22;6141;49.092;8.516;2022-12-18T16:05:44;-0.60;43.40
12156;DHT22;6141;49.092;8.516;2022-12-18T16:51:17;-0.70;44.50
12156;DHT22;6141;49.092;8.516;2022-12-18T16:53:49;-0.80;45.00
12156;DHT22;6141;49.092;8.516;2022-12-18T16:56:26;-0.80;45.70
12156;DHT22;6141;49.092;8.516;2022-12-18T16:59:03;-0.80;45.60
12156;DHT22;6141;49.092;8.516;2022-12-18T17:02:15;-0.70;46.10
12156;DHT22;6141;49.092;8.516;2022-12-18T17:06:05;-0.80;45.80
12156;DHT22;6141;49.092;8.516;2022-12-18T17:25:05;-1.50;47.50
12156;DHT22;6141;49.092;8.516;2022-12-18T17:27:50;-1.60;48.20
12156;DHT22;6141;49.092;8.516;2022-12-18T17:30:19;-1.70;48.70
12156;DHT22;6141;49.092;8.516;2022-12-18T17:32:48;-1.40;48.00
12156;DHT22;6141;49.092;8.516;2022-12-18T17:35:19;-1.40;48.00
12156;DHT22;6141;49.092;8.516;2022-12-18T17:37:53;-1.50;47.70
12156;DHT22;6141;49.092;8.516;2022-12-18T17:40:29;-1.30;47.20
12156;DHT22;6141;49.092;8.516;2022-12-18T17:43:00;-1.30;47.20
12156;DHT22;6141;49.092;8.516;2022-12-18T17:45:34;-1.30;47.10
12156;DHT22;6141;49.092;8.516;2022-12-18T17:48:05;-1.20;47.20
12156;DHT22;6141;49.092;8.516;2022-12-18T17:50:36;-1.20;47.20
12156;DHT22;6141;49.092;8.516;2022-12-18T17:53:09;-1.30;46.70
12156;DHT22;6141;49.092;8.516;2022-12-18T17:56:24;-1.40;47.10
12156;DHT22;6141;49.092;8.516;2022-12-18T18:15:26;-1.10;47.40
12156;DHT22;6141;49.092;8.516;2022-12-18T18:17:57;-1.00;47.40
12156;DHT22;6141;49.092;8.516;2022-12-18T18:49:33;-1.30;47.20
12156;DHT22;6141;49.092;8.516;2022-12-18T18:55:25;-1.20;47.30
12156;DHT22;6141;49.092;8.516;2022-12-18T18:57:56;-1.10;48.10
12156;DHT22;6141;49.092;8.516;2022-12-18T19:20:57;-0.50;45.30
12156;DHT22;6141;49.092;8.516;2022-12-18T19:26:23;-0.40;45.50
12156;DHT22;6141;49.092;8.516;2022-12-18T19:29:02;-0.40;45.70
12156;DHT22;6141;49.092;8.516;2022-12-18T19:31:42;-0.40;45.10
12156;DHT22;6141;49.092;8.516;2022-12-18T19:34:12;-0.20;44.80
12156;DHT22;6141;49.092;8.516;2022-12-18T19:36:43;-0.20;44.10
12156;DHT22;6141;49.092;8.516;2022-12-18T19:39:14;-0.20;43.90
12156;DHT22;6141;49.092;8.516;2022-12-18T19:41:46;-0.30;44.20
12156;DHT22;6141;49.092;8.516;2022-12-18T19:44:16;-0.40;44.40
12156;DHT22;6141;49.092;8.516;2022-12-18T19:47:28;-0.30;44.80
12156;DHT22;6141;49.092;8.516;2022-12-18T19:50:50;-0.20;44.80
12156;DHT22;6141;49.092;8.516;2022-12-18T19:57:00;-0.20;44.80
12156;DHT22;6141;49.092;8.516;2022-12-18T20:00:43;-0.10;44.30
12156;DHT22;6141;49.092;8.516;2022-12-18T20:08:21;-0.10;43.90
12156;DHT22;6141;49.092;8.516;2022-12-18T20:10:54;0.10;43.70
12156;DHT22;6141;49.092;8.516;2022-12-18T20:24:11;-0.50;45.50
12156;DHT22;6141;49.092;8.516;2022-12-18T20:26:43;-0.60;45.70
12156;DHT22;6141;49.092;8.516;2022-12-18T20:29:16;-0.50;46.10
12156;DHT22;6141;49.092;8.516;2022-12-18T20:31:49;-0.60;46.40
12156;DHT22;6141;49.092;8.516;2022-12-18T20:35:21;-0.60;46.80
12156;DHT22;6141;49.092;8.516;2022-12-18T21:31:03;-0.50;47.90
12156;DHT22;6141;49.092;8.516;2022-12-18T21:34:13;-0.60;47.60
12156;DHT22;6141;49.092;8.516;2022-12-18T21:41:28;-0.60;47.80
12156;DHT22;6141;49.092;8.516;2022-12-18T21:44:28;-0.50;47.90
12156;DHT22;6141;49.092;8.516;2022-12-18T21:47:13;-0.40;48.00
12156;DHT22;6141;49.092;8.516;2022-12-18T21:49:53;-0.30;48.00
12156;DHT22;6141;49.092;8.516;2022-12-18T21:52:21;-0.40;47.90
12156;DHT22;6141;49.092;8.516;2022-12-18T21:54:59;-0.40;48.00
12156;DHT22;6141;49.092;8.516;2022-12-18T22:10:44;0.00;46.00
12156;DHT22;6141;49.092;8.516;2022-12-18T22:13:18;0.00;46.50
12156;DHT22;6141;49.092;8.516;2022-12-18T22:15:54;-0.10;46.60
12156;DHT22;6141;49.092;8.516;2022-12-18T22:18:28;-0.10;47.20
12156;DHT22;6141;49.092;8.516;2022-12-18T22:21:03;-0.20;46.70
12156;DHT22;6141;49.092;8.516;2022-12-18T22:23:33;-0.20;46.60
12156;DHT22;6141;49.092;8.516;2022-12-18T22:26:52;-0.10;46.50
12156;DHT22;6141;49.092;8.516;2022-12-18T22:29:28;0.00;46.30
12156;DHT22;6141;49.092;8.516;2022-12-18T22:32:16;0.00;46.40
12156;DHT22;6141;49.092;8.516;2022-12-18T22:34:57;0.00;46.70
12156;DHT22;6141;49.092;8.516;2022-12-18T22:37:36;0.00;47.10
12156;DHT22;6141;49.092;8.516;2022-12-18T22:40:08;-0.10;47.30
12156;DHT22;6141;49.092;8.516;2022-12-18T22:42:42;-0.30;48.10
12156;DHT22;6141;49.092;8.516;2022-12-18T22:45:20;-0.10;48.30
12156;DHT22;6141;49.092;8.516;2022-12-18T22:48:18;-0.20;48.20
12156;DHT22;6141;49.092;8.516;2022-12-18T22:51:17;-0.10;48.30
12156;DHT22;6141;49.092;8.516;2022-12-18T22:53:51;0.00;48.40
12156;DHT22;6141;49.092;8.516;2022-12-18T22:56:23;0.10;47.40
12156;DHT22;6141;49.092;8.516;2022-12-18T22:59:07;0.10;47.10
12156;DHT22;6141;49.092;8.516;2022-12-18T23:01:40;0.10;47.20
12156;DHT22;6141;49.092;8.516;2022-12-18T23:04:24;0.20;46.20
12156;DHT22;6141;49.092;8.516;2022-12-18T23:07:30;0.20;45.90
12156;DHT22;6141;49.092;8.516;2022-12-18T23:31:44;0.20;46.40
12156;DHT22;6141;49.092;8.516;2022-12-18T23:57:08;0.20;46.60
